sensor_id;sensor_type;location;lat;lon;timestamp;P1;durP1;ratioP1;P2;durP2;ratioP2
16845;SDS011;8539;53.188;8.696;2022-12-18T00:02:03;50.40;;;24.23;;
16845;SDS011;8539;53.188;8.696;2022-12-18T00:04:29;55.22;;;25.77;;
16845;SDS011;8539;53.188;8.696;2022-12-18T00:06:55;50.75;;;25.65;;
16845;SDS011;8539;53.188;8.696;2022-12-18T00:09:21;53.88;;;26.50;;
16845;SDS011;8539;53.188;8.696;2022-12-18T00:11:47;52.38;;;26.55;;
16845;SDS011;8539;53.188;8.696;2022-12-18T00:14:14;63.33;;;26.88;;
16845;SDS011;8539;53.188;8.696;2022-12-18T00:16:43;62.72;;;27.67;;
16845;SDS011;8539;53.188;8.696;2022-12-18T00:19:10;47.55;;;25.13;;
16845;SDS011;8539;53.188;8.696;2022-12-18T00:21:41;49.33;;;24.33;;
16845;SDS011;8539;53.188;8.696;2022-12-18T00:24:10;55.00;;;25.80;;
16845;SDS011;8539;53.188;8.696;2022-12-18T00:26:37;55.55;;;24.67;;
16845;SDS011;8539;53.188;8.696;2022-12-18T00:29:09;56.00;;;25.10;;
16845;SDS011;8539;53.188;8.696;2022-12-18T00:31:39;53.03;;;26.38;;
16845;SDS011;8539;53.188;8.696;2022-12-18T00:34:08;63.15;;;28.08;;
16845;SDS011;8539;53.188;8.696;2022-12-18T00:36:37;65.53;;;28.42;;
16845;SDS011;8539;53.188;8.696;2022-12-18T00:39:03;59.17;;;26.23;;
16845;SDS011;8539;53.188;8.696;2022-12-18T00:41:30;65.43;;;26.45;;
16845;SDS011;8539;53.188;8.696;2022-12-18T00:44:16;67.10;;;27.67;;
16845;SDS011;8539;53.188;8.696;2022-12-18T00:46:44;61.17;;;26.67;;
16845;SDS011;8539;53.188;8.696;2022-12-18T00:49:11;57.40;;;25.77;;
16845;SDS011;8539;53.188;8.696;2022-12-18T00:51:37;72.22;;;28.38;;
16845;SDS011;8539;53.188;8.696;2022-12-18T00:54:03;59.50;;;25.15;;
16845;SDS011;8539;53.188;8.696;2022-12-18T00:56:30;63.47;;;26.13;;
16845;SDS011;8539;53.188;8.696;2022-12-18T00:58:56;62.47;;;27.63;;
16845;SDS011;8539;53.188;8.696;2022-12-18T01:01:22;53.90;;;24.88;;
16845;SDS011;8539;53.188;8.696;2022-12-18T01:03:49;60.80;;;25.98;;
16845;SDS011;8539;53.188;8.696;2022-12-18T01:06:16;58.72;;;26.73;;
16845;SDS011;8539;53.188;8.696;2022-12-18T01:08:42;51.53;;;26.02;;
16845;SDS011;8539;53.188;8.696;2022-12-18T01:11:10;51.47;;;25.90;;
16845;SDS011;8539;53.188;8.696;2022-12-18T01:13:38;49.03;;;23.83;;
16845;SDS011;8539;53.188;8.696;2022-12-18T01:16:05;49.83;;;24.20;;
16845;SDS011;8539;53.188;8.696;2022-12-18T01:18:31;48.05;;;24.33;;
16845;SDS011;8539;53.188;8.696;2022-12-18T01:20:57;51.45;;;23.58;;
16845;SDS011;8539;53.188;8.696;2022-12-18T01:23:23;52.72;;;24.10;;
16845;SDS011;8539;53.188;8.696;2022-12-18T01:25:52;50.97;;;24.92;;
16845;SDS011;8539;53.188;8.696;2022-12-18T01:28:18;49.10;;;22.75;;
16845;SDS011;8539;53.188;8.696;2022-12-18T01:30:45;55.85;;;24.38;;
16845;SDS011;8539;53.188;8.696;2022-12-18T01:33:11;55.72;;;25.05;;
16845;SDS011;8539;53.188;8.696;2022-12-18T01:35:43;44.65;;;24.40;;
16845;SDS011;8539;53.188;8.696;2022-12-18T01:38:09;53.88;;;25.33;;
16845;SDS011;8539;53.188;8.696;2022-12-18T01:40:35;60.10;;;26.15;;
16845;SDS011;8539;53.188;8.696;2022-12-18T01:43:03;50.03;;;25.60;;
16845;SDS011;8539;53.188;8.696;2022-12-18T01:45:31;50.58;;;23.85;;
16845;SDS011;8539;53.188;8.696;2022-12-18T01:50:30;55.58;;;26.23;;
16845;SDS011;8539;53.188;8.696;2022-12-18T01:53:14;52.35;;;24.65;;
16845;SDS011;8539;53.188;8.696;2022-12-18T01:55:50;52.03;;;23.80;;
16845;SDS011;8539;53.188;8.696;2022-12-18T01:58:19;56.08;;;25.60;;
16845;SDS011;8539;53.188;8.696;2022-12-18T02:00:50;51.50;;;27.52;;
16845;SDS011;8539;53.188;8.696;2022-12-18T02:03:16;47.40;;;24.25;;
16845;SDS011;8539;53.188;8.696;2022-12-18T02:05:58;41.28;;;23.58;;
16845;SDS011;8539;53.188;8.696;2022-12-18T02:11:32;42.20;;;22.90;;
16845;SDS011;8539;53.188;8.696;2022-12-18T02:14:44;48.10;;;23.77;;
16845;SDS011;8539;53.188;8.696;2022-12-18T02:17:19;50.97;;;26.55;;
16845;SDS011;8539;53.188;8.696;2022-12-18T02:27:58;43.03;;;24.40;;
16845;SDS011;8539;53.188;8.696;2022-12-18T02:30:29;45.35;;;24.02;;
16845;SDS011;8539;53.188;8.696;2022-12-18T02:32:58;37.88;;;21.90;;
16845;SDS011;8539;53.188;8.696;2022-12-18T02:35:27;36.67;;;20.70;;
16845;SDS011;8539;53.188;8.696;2022-12-18T02:37:55;42.22;;;20.83;;
16845;SDS011;8539;53.188;8.696;2022-12-18T02:40:23;37.50;;;21.55;;
16845;SDS011;8539;53.188;8.696;2022-12-18T02:42:52;42.03;;;20.80;;
16845;SDS011;8539;53.188;8.696;2022-12-18T02:45:18;42.10;;;21.95;;
16845;SDS011;8539;53.188;8.696;2022-12-18T02:47:45;41.53;;;21.15;;
16845;SDS011;8539;53.188;8.696;2022-12-18T03:04:06;32.45;;;19.60;;
16845;SDS011;8539;53.188;8.696;2022-12-18T03:06:39;36.65;;;19.83;;
16845;SDS011;8539;53.188;8.696;2022-12-18T03:09:14;39.80;;;19.77;;
16845;SDS011;8539;53.188;8.696;2022-12-18T03:11:48;38.72;;;19.52;;
16845;SDS011;8539;53.188;8.696;2022-12-18T03:14:38;35.10;;;19.50;;
16845;SDS011;8539;53.188;8.696;2022-12-18T03:17:11;32.60;;;19.67;;
16845;SDS011;8539;53.188;8.696;2022-12-18T03:19:41;31.85;;;19.15;;
16845;SDS011;8539;53.188;8.696;2022-12-18T03:22:09;39.33;;;19.85;;
16845;SDS011;8539;53.188;8.696;2022-12-18T03:24:35;37.17;;;19.13;;
16845;SDS011;8539;53.188;8.696;2022-12-18T03:27:06;38.65;;;19.05;;
16845;SDS011;8539;53.188;8.696;2022-12-18T03:32:19;31.60;;;18.40;;
16845;SDS011;8539;53.188;8.696;2022-12-18T03:34:50;27.58;;;18.42;;
16845;SDS011;8539;53.188;8.696;2022-12-18T03:37:20;34.92;;;18.65;;
16845;SDS011;8539;53.188;8.696;2022-12-18T03:39:47;32.25;;;18.08;;
16845;SDS011;8539;53.188;8.696;2022-12-18T03:42:15;37.00;;;19.10;;
16845;SDS011;8539;53.188;8.696;2022-12-18T03:52:43;43.58;;;19.42;;
16845;SDS011;8539;53.188;8.696;2022-12-18T03:55:14;41.40;;;19.58;;
16845;SDS011;8539;53.188;8.696;2022-12-18T03:57:41;42.17;;;19.73;;
16845;SDS011;8539;53.188;8.696;2022-12-18T04:00:10;34.72;;;18.45;;
16845;SDS011;8539;53.188;8.696;2022-12-18T04:02:40;38.83;;;20.15;;
16845;SDS011;8539;53.188;8.696;2022-12-18T04:05:10;42.08;;;20.30;;
16845;SDS011;8539;53.188;8.696;2022-12-18T04:07:37;39.22;;;20.05;;
16845;SDS011;8539;53.188;8.696;2022-12-18T04:10:05;36.33;;;18.88;;
16845;SDS011;8539;53.188;8.696;2022-12-18T04:15:03;30.80;;;16.50;;
16845;SDS011;8539;53.188;8.696;2022-12-18T04:17:30;36.38;;;18.10;;
16845;SDS011;8539;53.188;8.696;2022-12-18T04:19:56;35.47;;;18.73;;
16845;SDS011;8539;53.188;8.696;2022-12-18T04:22:22;32.28;;;16.67;;
16845;SDS011;8539;53.188;8.696;2022-12-18T04:24:48;39.20;;;18.65;;
16845;SDS011;8539;53.188;8.696;2022-12-18T04:27:14;35.42;;;18.42;;
16845;SDS011;8539;53.188;8.696;2022-12-18T04:29:40;36.50;;;19.08;;
16845;SDS011;8539;53.188;8.696;2022-12-18T04:32:06;34.30;;;18.55;;
16845;SDS011;8539;53.188;8.696;2022-12-18T04:34:33;33.00;;;18.20;;
16845;SDS011;8539;53.188;8.696;2022-12-18T04:37:02;35.53;;;18.17;;
16845;SDS011;8539;53.188;8.696;2022-12-18T04:39:28;35.65;;;17.98;;
16845;SDS011;8539;53.188;8.696;2022-12-18T04:41:54;28.17;;;15.90;;
16845;SDS011;8539;53.188;8.696;2022-12-18T04:44:20;32.70;;;16.90;;
16845;SDS011;8539;53.188;8.696;2022-12-18T04:46:46;29.15;;;17.13;;
16845;SDS011;8539;53.188;8.696;2022-12-18T04:49:12;31.67;;;14.77;;
16845;SDS011;8539;53.188;8.696;2022-12-18T04:51:38;34.47;;;16.65;;
16845;SDS011;8539;53.188;8.696;2022-12-18T04:54:05;27.63;;;15.65;;
16845;SDS011;8539;53.188;8.696;2022-12-18T04:56:31;31.10;;;16.40;;
16845;SDS011;8539;53.188;8.696;2022-12-18T04:58:57;29.98;;;15.68;;
16845;SDS011;8539;53.188;8.696;2022-12-18T05:01:23;36.10;;;17.92;;
16845;SDS011;8539;53.188;8.696;2022-12-18T05:03:50;36.55;;;17.48;;
16845;SDS011;8539;53.188;8.696;2022-12-18T05:06:17;34.67;;;17.13;;
16845;SDS011;8539;53.188;8.696;2022-12-18T05:08:43;36.90;;;16.40;;
16845;SDS011;8539;53.188;8.696;2022-12-18T05:11:10;31.75;;;16.27;;
16845;SDS011;8539;53.188;8.696;2022-12-18T05:13:38;29.58;;;16.50;;
16845;SDS011;8539;53.188;8.696;2022-12-18T05:16:04;32.25;;;15.02;;
16845;SDS011;8539;53.188;8.696;2022-12-18T05:18:31;32.03;;;15.52;;
16845;SDS011;8539;53.188;8.696;2022-12-18T05:20:57;28.80;;;16.55;;
16845;SDS011;8539;53.188;8.696;2022-12-18T05:23:24;28.42;;;15.52;;
16845;SDS011;8539;53.188;8.696;2022-12-18T05:25:51;28.40;;;15.00;;
16845;SDS011;8539;53.188;8.696;2022-12-18T05:28:17;34.42;;;18.88;;
16845;SDS011;8539;53.188;8.696;2022-12-18T05:30:47;34.45;;;16.88;;
16845;SDS011;8539;53.188;8.696;2022-12-18T05:35:52;29.63;;;16.20;;
16845;SDS011;8539;53.188;8.696;2022-12-18T05:38:21;34.28;;;15.98;;
16845;SDS011;8539;53.188;8.696;2022-12-18T05:40:48;29.05;;;14.63;;
16845;SDS011;8539;53.188;8.696;2022-12-18T05:43:15;27.55;;;15.68;;
16845;SDS011;8539;53.188;8.696;2022-12-18T05:45:41;26.95;;;14.82;;
16845;SDS011;8539;53.188;8.696;2022-12-18T05:48:10;30.50;;;16.20;;
16845;SDS011;8539;53.188;8.696;2022-12-18T05:50:38;26.90;;;14.55;;
16845;SDS011;8539;53.188;8.696;2022-12-18T05:53:06;26.13;;;14.93;;
16845;SDS011;8539;53.188;8.696;2022-12-18T05:55:36;26.23;;;14.48;;
16845;SDS011;8539;53.188;8.696;2022-12-18T05:58:03;26.23;;;14.23;;
16845;SDS011;8539;53.188;8.696;2022-12-18T06:00:31;23.17;;;13.93;;
16845;SDS011;8539;53.188;8.696;2022-12-18T06:03:01;26.60;;;14.73;;
16845;SDS011;8539;53.188;8.696;2022-12-18T06:05:27;27.60;;;14.52;;
16845;SDS011;8539;53.188;8.696;2022-12-18T06:07:53;28.85;;;14.20;;
16845;SDS011;8539;53.188;8.696;2022-12-18T06:10:19;27.83;;;15.15;;
16845;SDS011;8539;53.188;8.696;2022-12-18T06:12:45;32.33;;;16.55;;
16845;SDS011;8539;53.188;8.696;2022-12-18T06:15:11;26.17;;;14.88;;
16845;SDS011;8539;53.188;8.696;2022-12-18T06:17:37;24.92;;;15.70;;
16845;SDS011;8539;53.188;8.696;2022-12-18T06:20:03;35.72;;;16.90;;
16845;SDS011;8539;53.188;8.696;2022-12-18T06:22:31;26.10;;;14.18;;
16845;SDS011;8539;53.188;8.696;2022-12-18T06:24:58;26.23;;;14.90;;
16845;SDS011;8539;53.188;8.696;2022-12-18T06:27:24;30.20;;;15.55;;
16845;SDS011;8539;53.188;8.696;2022-12-18T06:29:51;33.05;;;16.48;;
16845;SDS011;8539;53.188;8.696;2022-12-18T06:32:17;33.85;;;18.70;;
16845;SDS011;8539;53.188;8.696;2022-12-18T06:34:43;32.95;;;18.02;;
16845;SDS011;8539;53.188;8.696;2022-12-18T06:37:09;36.45;;;19.50;;
16845;SDS011;8539;53.188;8.696;2022-12-18T06:39:35;29.67;;;18.55;;
16845;SDS011;8539;53.188;8.696;2022-12-18T06:42:01;36.15;;;19.70;;
16845;SDS011;8539;53.188;8.696;2022-12-18T06:44:27;24.55;;;15.63;;
16845;SDS011;8539;53.188;8.696;2022-12-18T06:46:53;29.95;;;15.88;;
16845;SDS011;8539;53.188;8.696;2022-12-18T06:49:19;30.55;;;17.05;;
16845;SDS011;8539;53.188;8.696;2022-12-18T06:51:45;29.08;;;14.85;;
16845;SDS011;8539;53.188;8.696;2022-12-18T06:54:11;28.02;;;15.88;;
16845;SDS011;8539;53.188;8.696;2022-12-18T06:56:37;26.08;;;13.90;;
16845;SDS011;8539;53.188;8.696;2022-12-18T06:59:04;32.22;;;16.40;;
16845;SDS011;8539;53.188;8.696;2022-12-18T07:01:30;24.73;;;13.43;;
16845;SDS011;8539;53.188;8.696;2022-12-18T07:03:56;28.23;;;14.75;;
16845;SDS011;8539;53.188;8.696;2022-12-18T07:06:24;25.10;;;13.60;;
16845;SDS011;8539;53.188;8.696;2022-12-18T07:08:50;35.08;;;15.82;;
16845;SDS011;8539;53.188;8.696;2022-12-18T07:11:18;26.75;;;14.25;;
16845;SDS011;8539;53.188;8.696;2022-12-18T07:13:44;28.90;;;15.82;;
16845;SDS011;8539;53.188;8.696;2022-12-18T07:16:18;26.75;;;13.65;;
16845;SDS011;8539;53.188;8.696;2022-12-18T07:18:45;22.98;;;13.52;;
16845;SDS011;8539;53.188;8.696;2022-12-18T07:21:12;23.25;;;13.07;;
16845;SDS011;8539;53.188;8.696;2022-12-18T07:23:40;27.13;;;14.65;;
16845;SDS011;8539;53.188;8.696;2022-12-18T07:26:08;28.05;;;15.73;;
16845;SDS011;8539;53.188;8.696;2022-12-18T07:28:36;33.05;;;18.33;;
16845;SDS011;8539;53.188;8.696;2022-12-18T07:31:03;34.85;;;19.85;;
16845;SDS011;8539;53.188;8.696;2022-12-18T07:33:32;28.83;;;18.08;;
16845;SDS011;8539;53.188;8.696;2022-12-18T07:36:07;29.15;;;15.43;;
16845;SDS011;8539;53.188;8.696;2022-12-18T07:38:36;30.38;;;16.05;;
16845;SDS011;8539;53.188;8.696;2022-12-18T07:41:06;31.95;;;17.27;;
16845;SDS011;8539;53.188;8.696;2022-12-18T07:43:34;37.30;;;18.23;;
16845;SDS011;8539;53.188;8.696;2022-12-18T07:46:01;34.47;;;18.20;;
16845;SDS011;8539;53.188;8.696;2022-12-18T07:48:27;27.60;;;15.52;;
16845;SDS011;8539;53.188;8.696;2022-12-18T07:50:57;31.23;;;15.30;;
16845;SDS011;8539;53.188;8.696;2022-12-18T07:53:28;30.63;;;14.20;;
16845;SDS011;8539;53.188;8.696;2022-12-18T07:55:56;24.67;;;13.43;;
16845;SDS011;8539;53.188;8.696;2022-12-18T07:58:28;34.88;;;14.52;;
16845;SDS011;8539;53.188;8.696;2022-12-18T08:00:54;20.73;;;12.30;;
16845;SDS011;8539;53.188;8.696;2022-12-18T08:03:35;27.40;;;14.00;;
16845;SDS011;8539;53.188;8.696;2022-12-18T08:06:02;26.95;;;14.55;;
16845;SDS011;8539;53.188;8.696;2022-12-18T08:08:29;23.98;;;14.02;;
16845;SDS011;8539;53.188;8.696;2022-12-18T08:10:56;22.75;;;12.57;;
16845;SDS011;8539;53.188;8.696;2022-12-18T08:13:22;23.73;;;12.82;;
16845;SDS011;8539;53.188;8.696;2022-12-18T08:15:59;28.05;;;11.75;;
16845;SDS011;8539;53.188;8.696;2022-12-18T08:18:27;22.30;;;12.52;;
16845;SDS011;8539;53.188;8.696;2022-12-18T08:20:53;22.73;;;12.77;;
16845;SDS011;8539;53.188;8.696;2022-12-18T08:23:20;24.77;;;13.30;;
16845;SDS011;8539;53.188;8.696;2022-12-18T08:25:47;27.73;;;13.88;;
16845;SDS011;8539;53.188;8.696;2022-12-18T08:28:16;32.90;;;13.98;;
16845;SDS011;8539;53.188;8.696;2022-12-18T08:30:42;26.75;;;12.82;;
16845;SDS011;8539;53.188;8.696;2022-12-18T08:33:08;22.90;;;13.52;;
16845;SDS011;8539;53.188;8.696;2022-12-18T08:35:34;31.35;;;16.25;;
16845;SDS011;8539;53.188;8.696;2022-12-18T08:38:02;37.78;;;18.17;;
16845;SDS011;8539;53.188;8.696;2022-12-18T08:40:29;29.73;;;16.48;;
16845;SDS011;8539;53.188;8.696;2022-12-18T08:42:58;27.70;;;16.92;;
16845;SDS011;8539;53.188;8.696;2022-12-18T08:45:42;28.42;;;15.77;;
16845;SDS011;8539;53.188;8.696;2022-12-18T08:48:10;26.23;;;14.48;;
16845;SDS011;8539;53.188;8.696;2022-12-18T08:50:36;27.42;;;15.32;;
16845;SDS011;8539;53.188;8.696;2022-12-18T08:53:02;29.33;;;15.05;;
16845;SDS011;8539;53.188;8.696;2022-12-18T08:55:28;31.83;;;14.63;;
16845;SDS011;8539;53.188;8.696;2022-12-18T08:57:54;23.95;;;13.40;;
16845;SDS011;8539;53.188;8.696;2022-12-18T09:00:20;25.73;;;13.05;;
16845;SDS011;8539;53.188;8.696;2022-12-18T09:02:47;22.75;;;13.73;;
16845;SDS011;8539;53.188;8.696;2022-12-18T09:05:13;22.02;;;13.45;;
16845;SDS011;8539;53.188;8.696;2022-12-18T09:07:39;26.38;;;14.23;;
16845;SDS011;8539;53.188;8.696;2022-12-18T09:10:05;31.02;;;15.65;;
16845;SDS011;8539;53.188;8.696;2022-12-18T09:12:31;28.55;;;14.32;;
16845;SDS011;8539;53.188;8.696;2022-12-18T09:14:57;31.23;;;13.13;;
16845;SDS011;8539;53.188;8.696;2022-12-18T09:17:23;27.55;;;12.05;;
16845;SDS011;8539;53.188;8.696;2022-12-18T09:19:49;23.17;;;12.55;;
16845;SDS011;8539;53.188;8.696;2022-12-18T09:22:16;19.08;;;11.88;;
16845;SDS011;8539;53.188;8.696;2022-12-18T09:24:42;20.88;;;11.32;;
16845;SDS011;8539;53.188;8.696;2022-12-18T09:27:08;20.63;;;12.23;;
16845;SDS011;8539;53.188;8.696;2022-12-18T09:29:34;31.80;;;13.50;;
16845;SDS011;8539;53.188;8.696;2022-12-18T09:32:00;27.20;;;12.55;;
16845;SDS011;8539;53.188;8.696;2022-12-18T09:34:26;23.08;;;11.27;;
16845;SDS011;8539;53.188;8.696;2022-12-18T09:36:52;24.70;;;12.85;;
16845;SDS011;8539;53.188;8.696;2022-12-18T09:39:18;20.15;;;11.52;;
16845;SDS011;8539;53.188;8.696;2022-12-18T09:41:45;23.48;;;14.05;;
16845;SDS011;8539;53.188;8.696;2022-12-18T09:47:11;19.52;;;11.77;;
16845;SDS011;8539;53.188;8.696;2022-12-18T09:49:46;27.33;;;13.13;;
16845;SDS011;8539;53.188;8.696;2022-12-18T09:52:17;25.10;;;13.13;;
16845;SDS011;8539;53.188;8.696;2022-12-18T09:57:49;29.67;;;12.63;;
16845;SDS011;8539;53.188;8.696;2022-12-18T10:00:21;24.30;;;12.45;;
16845;SDS011;8539;53.188;8.696;2022-12-18T10:02:49;21.45;;;12.32;;
16845;SDS011;8539;53.188;8.696;2022-12-18T10:05:30;20.02;;;12.13;;
16845;SDS011;8539;53.188;8.696;2022-12-18T10:10:57;19.52;;;11.60;;
16845;SDS011;8539;53.188;8.696;2022-12-18T10:15:58;20.08;;;11.23;;
16845;SDS011;8539;53.188;8.696;2022-12-18T10:21:34;21.73;;;11.10;;
16845;SDS011;8539;53.188;8.696;2022-12-18T10:26:46;23.80;;;12.00;;
16845;SDS011;8539;53.188;8.696;2022-12-18T10:29:13;20.02;;;11.07;;
16845;SDS011;8539;53.188;8.696;2022-12-18T10:31:41;23.00;;;11.30;;
16845;SDS011;8539;53.188;8.696;2022-12-18T10:34:11;20.67;;;11.00;;
16845;SDS011;8539;53.188;8.696;2022-12-18T10:36:40;22.02;;;11.85;;
16845;SDS011;8539;53.188;8.696;2022-12-18T10:39:14;22.90;;;11.70;;
16845;SDS011;8539;53.188;8.696;2022-12-18T10:41:42;20.83;;;11.45;;
16845;SDS011;8539;53.188;8.696;2022-12-18T10:44:16;24.00;;;11.80;;
16845;SDS011;8539;53.188;8.696;2022-12-18T10:46:50;19.58;;;11.60;;
16845;SDS011;8539;53.188;8.696;2022-12-18T10:52:04;19.40;;;11.50;;
16845;SDS011;8539;53.188;8.696;2022-12-18T11:02:49;19.23;;;11.02;;
16845;SDS011;8539;53.188;8.696;2022-12-18T11:05:37;21.42;;;12.27;;
16845;SDS011;8539;53.188;8.696;2022-12-18T11:08:03;23.05;;;12.65;;
16845;SDS011;8539;53.188;8.696;2022-12-18T11:10:33;20.38;;;11.70;;
16845;SDS011;8539;53.188;8.696;2022-12-18T11:13:11;17.63;;;10.45;;
16845;SDS011;8539;53.188;8.696;2022-12-18T11:15:42;25.77;;;12.52;;
16845;SDS011;8539;53.188;8.696;2022-12-18T11:18:20;19.63;;;11.73;;
16845;SDS011;8539;53.188;8.696;2022-12-18T11:20:54;18.55;;;11.63;;
16845;SDS011;8539;53.188;8.696;2022-12-18T11:23:23;23.65;;;12.35;;
16845;SDS011;8539;53.188;8.696;2022-12-18T11:25:56;22.83;;;11.77;;
16845;SDS011;8539;53.188;8.696;2022-12-18T11:28:25;19.73;;;10.82;;
16845;SDS011;8539;53.188;8.696;2022-12-18T11:33:37;16.40;;;10.48;;
16845;SDS011;8539;53.188;8.696;2022-12-18T11:36:10;21.05;;;12.00;;
16845;SDS011;8539;53.188;8.696;2022-12-18T11:38:37;18.55;;;11.13;;
16845;SDS011;8539;53.188;8.696;2022-12-18T11:43:50;16.15;;;10.73;;
16845;SDS011;8539;53.188;8.696;2022-12-18T11:49:01;15.48;;;10.05;;
16845;SDS011;8539;53.188;8.696;2022-12-18T11:52:09;13.52;;;9.52;;
16845;SDS011;8539;53.188;8.696;2022-12-18T11:54:47;17.50;;;10.13;;
16845;SDS011;8539;53.188;8.696;2022-12-18T11:57:22;16.52;;;9.23;;
16845;SDS011;8539;53.188;8.696;2022-12-18T12:00:12;13.93;;;9.77;;
16845;SDS011;8539;53.188;8.696;2022-12-18T12:08:20;16.58;;;8.32;;
16845;SDS011;8539;53.188;8.696;2022-12-18T12:22:11;14.38;;;9.02;;
16845;SDS011;8539;53.188;8.696;2022-12-18T12:35:29;14.25;;;8.27;;
16845;SDS011;8539;53.188;8.696;2022-12-18T12:38:13;13.85;;;8.20;;
16845;SDS011;8539;53.188;8.696;2022-12-18T12:40:59;12.18;;;8.43;;
16845;SDS011;8539;53.188;8.696;2022-12-18T12:43:38;13.27;;;8.40;;
16845;SDS011;8539;53.188;8.696;2022-12-18T12:46:13;11.50;;;7.73;;
16845;SDS011;8539;53.188;8.696;2022-12-18T12:48:52;14.48;;;8.07;;
16845;SDS011;8539;53.188;8.696;2022-12-18T12:51:29;15.70;;;7.93;;
16845;SDS011;8539;53.188;8.696;2022-12-18T12:54:11;13.38;;;9.07;;
16845;SDS011;8539;53.188;8.696;2022-12-18T12:57:05;16.48;;;9.05;;
16845;SDS011;8539;53.188;8.696;2022-12-18T13:02:28;17.88;;;8.75;;
16845;SDS011;8539;53.188;8.696;2022-12-18T13:05:19;17.98;;;9.38;;
16845;SDS011;8539;53.188;8.696;2022-12-18T13:07:49;14.25;;;8.65;;
16845;SDS011;8539;53.188;8.696;2022-12-18T13:20:42;19.90;;;11.07;;
16845;SDS011;8539;53.188;8.696;2022-12-18T13:25:56;16.00;;;7.82;;
16845;SDS011;8539;53.188;8.696;2022-12-18T13:31:14;14.27;;;9.00;;
16845;SDS011;8539;53.188;8.696;2022-12-18T13:34:23;13.52;;;8.88;;
16845;SDS011;8539;53.188;8.696;2022-12-18T13:36:46;18.13;;;9.10;;
16845;SDS011;8539;53.188;8.696;2022-12-18T13:41:39;13.65;;;8.48;;
16845;SDS011;8539;53.188;8.696;2022-12-18T13:44:40;14.68;;;8.15;;
16845;SDS011;8539;53.188;8.696;2022-12-18T13:47:03;15.98;;;7.57;;
16845;SDS011;8539;53.188;8.696;2022-12-18T13:49:36;16.40;;;9.10;;
16845;SDS011;8539;53.188;8.696;2022-12-18T13:54:45;10.90;;;7.68;;
16845;SDS011;8539;53.188;8.696;2022-12-18T13:59:51;14.57;;;8.57;;
16845;SDS011;8539;53.188;8.696;2022-12-18T14:02:18;14.60;;;8.80;;
16845;SDS011;8539;53.188;8.696;2022-12-18T14:04:48;17.58;;;9.32;;
16845;SDS011;8539;53.188;8.696;2022-12-18T14:07:16;18.17;;;9.48;;
16845;SDS011;8539;53.188;8.696;2022-12-18T14:09:50;22.17;;;10.02;;
16845;SDS011;8539;53.188;8.696;2022-12-18T14:12:32;15.63;;;9.57;;
16845;SDS011;8539;53.188;8.696;2022-12-18T14:20:56;16.92;;;9.15;;
16845;SDS011;8539;53.188;8.696;2022-12-18T14:23:29;15.35;;;9.40;;
16845;SDS011;8539;53.188;8.696;2022-12-18T14:26:17;15.45;;;9.30;;
16845;SDS011;8539;53.188;8.696;2022-12-18T14:28:50;14.57;;;8.48;;
16845;SDS011;8539;53.188;8.696;2022-12-18T14:31:21;13.50;;;8.90;;
16845;SDS011;8539;53.188;8.696;2022-12-18T14:33:49;17.52;;;10.48;;
16845;SDS011;8539;53.188;8.696;2022-12-18T14:36:22;17.75;;;9.32;;
16845;SDS011;8539;53.188;8.696;2022-12-18T14:38:50;15.95;;;8.52;;
16845;SDS011;8539;53.188;8.696;2022-12-18T14:41:19;14.82;;;9.07;;
16845;SDS011;8539;53.188;8.696;2022-12-18T14:43:47;14.15;;;8.57;;
16845;SDS011;8539;53.188;8.696;2022-12-18T14:49:18;15.45;;;7.88;;
16845;SDS011;8539;53.188;8.696;2022-12-18T14:51:57;14.40;;;8.73;;
16845;SDS011;8539;53.188;8.696;2022-12-18T14:54:28;16.50;;;8.70;;
16845;SDS011;8539;53.188;8.696;2022-12-18T14:56:59;16.33;;;8.88;;
16845;SDS011;8539;53.188;8.696;2022-12-18T14:59:28;13.73;;;8.68;;
16845;SDS011;8539;53.188;8.696;2022-12-18T15:02:01;17.10;;;8.52;;
16845;SDS011;8539;53.188;8.696;2022-12-18T15:04:29;16.08;;;8.80;;
16845;SDS011;8539;53.188;8.696;2022-12-18T15:09:42;13.10;;;8.13;;
16845;SDS011;8539;53.188;8.696;2022-12-18T15:14:59;16.25;;;9.52;;
16845;SDS011;8539;53.188;8.696;2022-12-18T15:17:25;22.55;;;10.68;;
16845;SDS011;8539;53.188;8.696;2022-12-18T15:19:53;20.80;;;9.90;;
16845;SDS011;8539;53.188;8.696;2022-12-18T15:22:33;16.73;;;9.02;;
16845;SDS011;8539;53.188;8.696;2022-12-18T15:25:01;14.98;;;8.40;;
16845;SDS011;8539;53.188;8.696;2022-12-18T15:27:33;16.00;;;8.38;;
16845;SDS011;8539;53.188;8.696;2022-12-18T15:32:35;16.88;;;10.15;;
16845;SDS011;8539;53.188;8.696;2022-12-18T15:37:40;18.60;;;8.77;;
16845;SDS011;8539;53.188;8.696;2022-12-18T15:40:06;16.20;;;8.02;;
16845;SDS011;8539;53.188;8.696;2022-12-18T15:42:37;15.48;;;8.85;;
16845;SDS011;8539;53.188;8.696;2022-12-18T15:45:21;13.75;;;7.93;;
16845;SDS011;8539;53.188;8.696;2022-12-18T15:47:47;16.05;;;8.52;;
16845;SDS011;8539;53.188;8.696;2022-12-18T15:50:13;15.95;;;8.38;;
16845;SDS011;8539;53.188;8.696;2022-12-18T15:52:40;16.55;;;8.55;;
16845;SDS011;8539;53.188;8.696;2022-12-18T15:55:14;17.33;;;8.60;;
16845;SDS011;8539;53.188;8.696;2022-12-18T15:58:00;11.73;;;7.65;;
16845;SDS011;8539;53.188;8.696;2022-12-18T16:00:26;19.98;;;9.80;;
16845;SDS011;8539;53.188;8.696;2022-12-18T16:02:53;18.98;;;9.50;;
16845;SDS011;8539;53.188;8.696;2022-12-18T16:05:19;19.98;;;10.23;;
16845;SDS011;8539;53.188;8.696;2022-12-18T16:07:47;17.42;;;8.60;;
16845;SDS011;8539;53.188;8.696;2022-12-18T16:10:13;14.98;;;8.68;;
16845;SDS011;8539;53.188;8.696;2022-12-18T16:12:40;16.80;;;8.25;;
16845;SDS011;8539;53.188;8.696;2022-12-18T16:15:07;16.65;;;8.07;;
16845;SDS011;8539;53.188;8.696;2022-12-18T16:17:33;14.95;;;6.88;;
16845;SDS011;8539;53.188;8.696;2022-12-18T16:19:59;12.48;;;7.47;;
16845;SDS011;8539;53.188;8.696;2022-12-18T16:22:29;17.52;;;7.70;;
16845;SDS011;8539;53.188;8.696;2022-12-18T16:24:56;13.88;;;8.07;;
16845;SDS011;8539;53.188;8.696;2022-12-18T16:27:22;14.75;;;7.95;;
16845;SDS011;8539;53.188;8.696;2022-12-18T16:29:49;15.13;;;7.72;;
16845;SDS011;8539;53.188;8.696;2022-12-18T16:32:19;17.20;;;9.32;;
16845;SDS011;8539;53.188;8.696;2022-12-18T16:34:46;17.95;;;8.77;;
16845;SDS011;8539;53.188;8.696;2022-12-18T16:37:14;14.05;;;8.60;;
16845;SDS011;8539;53.188;8.696;2022-12-18T16:39:41;13.77;;;8.75;;
16845;SDS011;8539;53.188;8.696;2022-12-18T16:42:17;18.55;;;9.20;;
16845;SDS011;8539;53.188;8.696;2022-12-18T16:44:46;15.13;;;9.27;;
16845;SDS011;8539;53.188;8.696;2022-12-18T16:47:15;22.00;;;9.98;;
16845;SDS011;8539;53.188;8.696;2022-12-18T16:49:42;17.45;;;7.75;;
16845;SDS011;8539;53.188;8.696;2022-12-18T16:52:10;14.95;;;9.30;;
16845;SDS011;8539;53.188;8.696;2022-12-18T16:54:36;14.57;;;8.20;;
16845;SDS011;8539;53.188;8.696;2022-12-18T16:57:02;20.08;;;8.48;;
16845;SDS011;8539;53.188;8.696;2022-12-18T16:59:29;21.08;;;9.60;;
16845;SDS011;8539;53.188;8.696;2022-12-18T17:01:55;15.45;;;8.35;;
16845;SDS011;8539;53.188;8.696;2022-12-18T17:04:22;16.27;;;10.00;;
16845;SDS011;8539;53.188;8.696;2022-12-18T17:06:48;20.17;;;8.75;;
16845;SDS011;8539;53.188;8.696;2022-12-18T17:09:21;18.15;;;8.32;;
16845;SDS011;8539;53.188;8.696;2022-12-18T17:11:50;17.67;;;9.25;;
16845;SDS011;8539;53.188;8.696;2022-12-18T17:14:18;16.70;;;9.10;;
16845;SDS011;8539;53.188;8.696;2022-12-18T17:16:46;14.98;;;8.40;;
16845;SDS011;8539;53.188;8.696;2022-12-18T17:19:13;19.20;;;8.07;;
16845;SDS011;8539;53.188;8.696;2022-12-18T17:21:39;15.88;;;8.63;;
16845;SDS011;8539;53.188;8.696;2022-12-18T17:24:06;13.40;;;8.55;;
16845;SDS011;8539;53.188;8.696;2022-12-18T17:26:32;14.00;;;9.73;;